Terminal Aerodrome Forecast
Issued by NWS

Home | Current Version | Previous Version | Text Only | Print | Product List | Glossary On
Versions: 1 2 3 4 5 6 7 8 9 10 11 12 13 14 15
000
FTUS46 KOTX 181008 AAA
TAFMWH
TAF AMD
KMWH 181008Z 1810/1906 26013KT P6SM SKC
     FM181400 27015G23KT P6SM SKC
     FM182000 26012G19KT P6SM SKC
     FM190100 26010G14KT P6SM SKC=

USA.gov is the U.S. government's official web portal to all federal, state and local government web resources and services.